Time;durP1;ratioP1;P1;durP2;ratioP2;P2;SDS_P1;SDS_P2;PMS_P1;PMS_P2;Temp;Humidity;BMP_temperature;BMP_pressure;BME280_temperature;BME280_humidity;BME280_pressure;Samples;Min_cycle;Max_cycle;Signal;HPM_P1;HPM_P2
2023/08/08 00:02:04;;;;;;;3.55;1.67;;;15.50;99.90;;;;;;5058765;28;20025;-66
2023/08/08 00:04:29;;;;;;;6.55;1.98;;;15.50;99.90;;;;;;5057724;28;20017;-66
2023/08/08 00:06:55;;;;;;;2.33;1.30;;;15.50;99.90;;;;;;5058051;28;20021;-66
2023/08/08 00:09:20;;;;;;;3.55;1.80;;;15.50;99.90;;;;;;5057865;28;20021;-66
2023/08/08 00:11:46;;;;;;;2.58;1.58;;;15.60;99.90;;;;;;5058038;28;20025;-66
2023/08/08 00:14:11;;;;;;;2.80;1.65;;;15.60;99.90;;;;;;5058374;28;20075;-66
2023/08/08 00:16:37;;;;;;;4.47;1.65;;;15.70;99.90;;;;;;5058455;28;20116;-66
2023/08/08 00:19:03;;;;;;;3.70;1.50;;;15.60;99.90;;;;;;5058448;28;20048;-66
2023/08/08 00:21:28;;;;;;;2.80;1.70;;;15.60;99.90;;;;;;5057787;28;20017;-66
2023/08/08 00:23:54;;;;;;;5.53;1.80;;;15.60;99.90;;;;;;5058564;28;20029;-66
2023/08/08 00:26:19;;;;;;;4.32;1.58;;;15.60;99.90;;;;;;5058443;28;20025;-66
2023/08/08 00:28:45;;;;;;;2.05;1.42;;;15.70;99.90;;;;;;5057446;28;20017;-66
2023/08/08 00:31:10;;;;;;;9.65;1.98;;;15.70;99.90;;;;;;5058253;28;20036;-66
2023/08/08 00:33:36;;;;;;;2.08;1.50;;;15.60;99.90;;;;;;5057195;28;20032;-66
2023/08/08 00:36:01;;;;;;;7.28;1.75;;;15.60;99.90;;;;;;5056877;28;20147;-66
2023/08/08 00:38:27;;;;;;;5.60;2.50;;;15.60;99.90;;;;;;5057797;28;20044;-66
2023/08/08 00:40:52;;;;;;;2.65;1.42;;;15.50;99.90;;;;;;5057612;28;20111;-66
2023/08/08 00:43:18;;;;;;;1.83;1.55;;;15.40;99.90;;;;;;5057020;28;20024;-66
2023/08/08 00:45:44;;;;;;;2.95;1.45;;;15.40;99.90;;;;;;5057207;28;20033;-66
2023/08/08 00:48:10;;;;;;;4.78;1.88;;;15.30;99.90;;;;;;5057070;28;20025;-66
2023/08/08 00:50:37;;;;;;;2.95;2.05;;;15.20;99.90;;;;;;5057655;28;20031;-66
2023/08/08 00:53:04;;;;;;;6.57;1.52;;;15.20;99.90;;;;;;5056920;28;20025;-66
2023/08/08 00:55:30;;;;;;;3.75;1.33;;;15.20;99.90;;;;;;5056774;28;20025;-66
2023/08/08 00:57:56;;;;;;;5.80;1.95;;;15.20;99.90;;;;;;5056679;28;20043;-66
2023/08/08 01:00:22;;;;;;;2.63;1.52;;;15.10;99.90;;;;;;5057677;28;20021;-66
2023/08/08 01:02:47;;;;;;;3.80;1.85;;;15.10;99.90;;;;;;5056593;28;20036;-66
2023/08/08 01:05:13;;;;;;;3.83;1.58;;;15.20;99.90;;;;;;5056560;28;20032;-66
2023/08/08 01:07:57;;;;;;;4.93;1.60;;;15.20;99.90;;;;;;5056830;28;20028;-66
2023/08/08 01:10:29;;;;;;;2.70;1.50;;;15.10;99.90;;;;;;5057660;28;20021;-66
2023/08/08 01:13:03;;;;;;;7.72;2.00;;;15.00;99.90;;;;;;5057318;28;20103;-66
2023/08/08 01:15:35;;;;;;;3.70;1.50;;;15.00;99.90;;;;;;5057269;28;20068;-66
2023/08/08 01:18:02;;;;;;;9.32;1.70;;;15.10;99.90;;;;;;5057669;28;20017;-66
2023/08/08 01:20:29;;;;;;;4.82;1.60;;;15.10;99.90;;;;;;5056451;28;20025;-66
2023/08/08 01:23:27;;;;;;;4.22;1.80;;;15.10;99.90;;;;;;5056995;28;20122;-66
2023/08/08 01:25:54;;;;;;;3.50;1.45;;;15.00;99.90;;;;;;5057463;28;20025;-66
2023/08/08 01:28:23;;;;;;;1.80;1.40;;;15.00;99.90;;;;;;5056497;28;20021;-66
2023/08/08 01:30:49;;;;;;;4.32;1.70;;;15.00;99.90;;;;;;5057378;28;20108;-66
2023/08/08 01:33:15;;;;;;;3.88;1.35;;;15.00;99.90;;;;;;5056881;28;20032;-66
2023/08/08 01:35:46;;;;;;;2.85;1.42;;;14.90;99.90;;;;;;5056159;28;20021;-66
2023/08/08 01:38:20;;;;;;;3.93;1.63;;;14.90;99.90;;;;;;5056867;28;20021;-66
2023/08/08 01:40:46;;;;;;;3.67;1.70;;;14.90;99.90;;;;;;5056618;28;20017;-66
2023/08/08 01:43:14;;;;;;;2.83;1.58;;;14.90;99.90;;;;;;5057029;28;20033;-66
2023/08/08 01:45:40;;;;;;;3.47;1.70;;;14.80;99.90;;;;;;5055950;28;20055;-66
2023/08/08 01:48:08;;;;;;;3.53;1.60;;;14.80;99.90;;;;;;5055894;28;20029;-66
2023/08/08 01:50:34;;;;;;;4.43;2.17;;;14.80;99.90;;;;;;5057025;28;20028;-66
2023/08/08 01:52:59;;;;;;;5.95;1.50;;;14.80;99.90;;;;;;5056033;28;20035;-66
2023/08/08 01:55:25;;;;;;;6.75;1.80;;;14.80;99.90;;;;;;5056177;28;20028;-66
2023/08/08 01:57:50;;;;;;;6.70;1.95;;;14.70;99.90;;;;;;5056762;28;20108;-66
2023/08/08 02:00:16;;;;;;;5.93;2.45;;;14.60;99.90;;;;;;5057056;28;20028;-66
2023/08/08 02:02:41;;;;;;;3.45;1.58;;;14.60;99.90;;;;;;5056707;28;20025;-66
2023/08/08 02:05:07;;;;;;;3.40;1.63;;;14.60;99.90;;;;;;5057306;28;20033;-67
2023/08/08 02:07:33;;;;;;;8.38;1.88;;;14.60;99.90;;;;;;5056189;28;20028;-67
2023/08/08 02:09:58;;;;;;;3.25;1.50;;;14.60;99.90;;;;;;5055834;28;20070;-67
2023/08/08 02:12:24;;;;;;;3.15;1.73;;;14.70;99.90;;;;;;5056643;28;20037;-67
2023/08/08 02:14:49;;;;;;;4.20;1.45;;;14.60;99.90;;;;;;5055739;28;20017;-67
2023/08/08 02:17:15;;;;;;;2.28;1.55;;;14.50;99.90;;;;;;5056038;28;20029;-67
2023/08/08 02:19:40;;;;;;;3.35;1.70;;;14.50;99.90;;;;;;5056900;28;20023;-67
2023/08/08 02:22:06;;;;;;;6.47;1.80;;;14.50;99.90;;;;;;5056028;28;20013;-67
2023/08/08 02:24:31;;;;;;;2.03;1.30;;;14.50;99.90;;;;;;5056660;28;20018;-67
2023/08/08 02:26:57;;;;;;;4.88;1.85;;;14.50;99.90;;;;;;5055689;28;20021;-67
2023/08/08 02:29:22;;;;;;;4.68;1.83;;;14.50;99.90;;;;;;5055602;28;20021;-67
2023/08/08 02:31:48;;;;;;;3.00;1.30;;;14.50;99.90;;;;;;5055588;28;20059;-67
2023/08/08 02:34:13;;;;;;;5.65;1.85;;;14.50;99.90;;;;;;5056268;28;20128;-67
2023/08/08 02:36:39;;;;;;;4.07;1.48;;;14.40;99.90;;;;;;5055912;28;20017;-67
2023/08/08 02:39:04;;;;;;;3.97;1.50;;;14.40;99.90;;;;;;5056494;28;20021;-67
2023/08/08 02:41:30;;;;;;;4.75;1.63;;;14.40;99.90;;;;;;5055905;28;20048;-67
2023/08/08 02:43:55;;;;;;;5.35;1.90;;;14.30;99.90;;;;;;5055621;28;20017;-67
2023/08/08 02:46:21;;;;;;;3.10;2.05;;;14.30;99.90;;;;;;5055646;28;20021;-67
2023/08/08 02:48:46;;;;;;;3.78;1.92;;;14.20;99.90;;;;;;5056069;28;20044;-67
2023/08/08 02:51:12;;;;;;;4.90;1.98;;;14.20;99.90;;;;;;5056345;28;20104;-67
2023/08/08 02:53:37;;;;;;;5.05;1.67;;;14.20;99.90;;;;;;5055279;28;20029;-67
2023/08/08 02:56:03;;;;;;;2.22;1.38;;;14.30;99.90;;;;;;5055409;28;20059;-67
2023/08/08 02:58:29;;;;;;;3.90;1.40;;;14.40;99.90;;;;;;5055445;28;20021;-67
2023/08/08 03:00:54;;;;;;;3.78;1.80;;;14.40;99.90;;;;;;5058396;28;20082;-67
2023/08/08 03:03:20;;;;;;;3.00;1.60;;;14.40;99.90;;;;;;5059627;28;20025;-67
2023/08/08 03:05:48;;;;;;;1.65;1.55;;;14.30;99.90;;;;;;5059266;28;20025;-67
2023/08/08 03:08:14;;;;;;;5.53;1.50;;;14.20;99.90;;;;;;5058960;28;20036;-67
2023/08/08 03:10:40;;;;;;;7.35;1.88;;;14.10;99.90;;;;;;5058811;28;20029;-67
2023/08/08 03:13:06;;;;;;;4.22;1.50;;;14.00;99.90;;;;;;5059052;28;20074;-67
2023/08/08 03:15:32;;;;;;;8.95;1.92;;;14.10;99.90;;;;;;5059540;28;20029;-67
2023/08/08 03:17:58;;;;;;;4.32;1.30;;;14.10;99.90;;;;;;5058618;28;20017;-67
2023/08/08 03:20:23;;;;;;;4.90;1.55;;;14.30;99.90;;;;;;5059489;28;20029;-67
2023/08/08 03:22:49;;;;;;;12.38;1.65;;;14.40;99.90;;;;;;5059336;28;20025;-67
2023/08/08 03:25:14;;;;;;;3.85;1.75;;;14.40;99.90;;;;;;5059415;28;20032;-67
2023/08/08 03:27:40;;;;;;;4.20;1.42;;;14.30;99.90;;;;;;5059006;28;20029;-67
2023/08/08 03:30:06;;;;;;;8.07;1.98;;;14.30;99.90;;;;;;5058436;28;20025;-67
2023/08/08 03:32:32;;;;;;;2.17;1.60;;;14.20;99.90;;;;;;5059487;28;20078;-67
2023/08/08 03:34:57;;;;;;;3.75;1.38;;;14.10;99.90;;;;;;5058258;28;20021;-67
2023/08/08 03:37:23;;;;;;;2.30;1.65;;;14.00;99.90;;;;;;5059539;28;20033;-67
2023/08/08 03:39:48;;;;;;;2.35;1.50;;;13.90;99.90;;;;;;5059340;28;20047;-67
2023/08/08 03:42:14;;;;;;;2.55;1.45;;;13.90;99.90;;;;;;5059338;28;20029;-67
2023/08/08 03:44:40;;;;;;;4.47;1.70;;;13.90;99.90;;;;;;5058185;28;20028;-67
2023/08/08 03:47:06;;;;;;;8.00;1.80;;;13.80;99.90;;;;;;5059229;28;20128;-67
2023/08/08 03:49:32;;;;;;;2.90;1.70;;;13.80;99.90;;;;;;5058398;28;20036;-67
2023/08/08 03:51:57;;;;;;;6.38;2.35;;;13.70;99.90;;;;;;5058425;28;20025;-67
2023/08/08 03:54:23;;;;;;;8.95;2.13;;;13.60;99.90;;;;;;5058427;28;20029;-66
2023/08/08 03:56:48;;;;;;;2.80;1.45;;;13.50;99.90;;;;;;5058876;28;20021;-66
2023/08/08 03:59:14;;;;;;;3.28;1.67;;;13.40;99.90;;;;;;5058201;28;20112;-66
2023/08/08 04:01:39;;;;;;;8.98;2.03;;;13.40;99.90;;;;;;5059083;28;20025;-67
2023/08/08 04:04:05;;;;;;;10.18;2.17;;;13.40;99.90;;;;;;5058793;28;20037;-67
2023/08/08 04:06:31;;;;;;;3.58;1.63;;;13.40;99.90;;;;;;5058014;28;20025;-67
2023/08/08 04:08:56;;;;;;;3.40;2.15;;;13.30;99.90;;;;;;5058170;28;20033;-66
2023/08/08 04:11:22;;;;;;;6.47;1.80;;;13.30;99.90;;;;;;5058625;28;20029;-67
2023/08/08 04:13:47;;;;;;;2.85;1.80;;;13.30;99.90;;;;;;5059090;28;20025;-67
2023/08/08 04:16:14;;;;;;;4.80;1.70;;;13.30;99.90;;;;;;5057512;28;20021;-67
2023/08/08 04:18:40;;;;;;;6.50;2.20;;;13.20;99.90;;;;;;5058811;28;20014;-66
2023/08/08 04:21:05;;;;;;;4.38;1.80;;;13.20;99.90;;;;;;5057619;28;20107;-66
2023/08/08 04:23:31;;;;;;;1.73;1.45;;;13.10;99.90;;;;;;5058401;28;20061;-67
2023/08/08 04:25:56;;;;;;;4.20;1.80;;;13.00;99.90;;;;;;5057371;28;20032;-66
2023/08/08 04:28:22;;;;;;;2.55;1.40;;;13.00;99.90;;;;;;5057462;28;20077;-66
2023/08/08 04:30:47;;;;;;;5.03;1.52;;;12.90;99.90;;;;;;5057716;28;20025;-67
2023/08/08 04:33:13;;;;;;;8.32;1.92;;;12.90;99.90;;;;;;5057156;28;20024;-67
2023/08/08 04:35:38;;;;;;;3.22;1.52;;;12.90;99.90;;;;;;5057975;28;20032;-67
2023/08/08 04:38:04;;;;;;;5.70;1.52;;;13.00;99.90;;;;;;5057523;28;20078;-67
2023/08/08 04:40:29;;;;;;;4.25;1.77;;;13.10;99.90;;;;;;5058165;28;20094;-67
2023/08/08 04:42:55;;;;;;;3.03;1.42;;;13.20;99.90;;;;;;5058083;28;20028;-67
2023/08/08 04:45:21;;;;;;;3.83;1.73;;;13.20;99.90;;;;;;5057029;28;20028;-67
2023/08/08 04:47:47;;;;;;;3.25;1.27;;;13.20;99.90;;;;;;5057021;28;20021;-67
2023/08/08 04:50:12;;;;;;;5.38;2.13;;;13.20;99.90;;;;;;5057281;28;20020;-67
2023/08/08 04:52:38;;;;;;;2.55;1.50;;;13.10;99.90;;;;;;5056999;28;20043;-67
2023/08/08 04:55:03;;;;;;;7.55;1.80;;;13.10;99.90;;;;;;5057095;28;20021;-67
2023/08/08 04:57:29;;;;;;;3.50;1.60;;;13.10;99.90;;;;;;5056825;28;20024;-67
2023/08/08 04:59:55;;;;;;;4.40;2.10;;;13.10;99.90;;;;;;5058042;28;20032;-67
2023/08/08 05:02:20;;;;;;;3.13;1.58;;;13.00;99.90;;;;;;5056725;28;20107;-67
2023/08/08 05:04:46;;;;;;;2.92;1.92;;;13.10;99.90;;;;;;5056822;28;20105;-67
2023/08/08 05:07:11;;;;;;;2.50;1.55;;;13.20;99.90;;;;;;5056654;28;20108;-67
2023/08/08 05:09:37;;;;;;;7.50;2.40;;;13.20;99.90;;;;;;5056592;28;20036;-67
2023/08/08 05:12:03;;;;;;;4.97;1.58;;;13.30;99.90;;;;;;5056911;28;20029;-67
2023/08/08 05:14:28;;;;;;;7.10;2.00;;;13.40;99.90;;;;;;5056388;28;20051;-67
2023/08/08 05:16:54;;;;;;;3.58;1.52;;;13.50;99.90;;;;;;5058013;28;20021;-67
2023/08/08 05:19:19;;;;;;;4.78;1.80;;;13.60;99.90;;;;;;5056450;28;20103;-67
2023/08/08 05:21:45;;;;;;;2.95;1.48;;;13.80;99.90;;;;;;5056421;28;20020;-67
2023/08/08 05:24:10;;;;;;;6.13;1.67;;;13.90;99.90;;;;;;5056192;28;20033;-67
2023/08/08 05:26:36;;;;;;;3.15;1.88;;;14.00;99.90;;;;;;5056458;28;20029;-67
2023/08/08 05:29:02;;;;;;;5.45;1.52;;;14.00;99.90;;;;;;5056364;28;20025;-67
2023/08/08 05:31:27;;;;;;;5.28;1.50;;;14.10;99.90;;;;;;5057204;28;20028;-67
2023/08/08 05:33:53;;;;;;;4.60;1.75;;;14.30;99.90;;;;;;5057204;28;20025;-67
2023/08/08 05:36:19;;;;;;;1.88;1.27;;;14.30;99.90;;;;;;5056406;28;20026;-67
2023/08/08 05:38:44;;;;;;;3.28;1.75;;;14.30;99.90;;;;;;5057231;28;20036;-67
2023/08/08 05:41:10;;;;;;;3.58;2.10;;;14.30;99.90;;;;;;5056302;28;20017;-67
2023/08/08 05:43:36;;;;;;;1.95;1.52;;;14.30;99.90;;;;;;5056108;28;20029;-67
2023/08/08 05:46:02;;;;;;;5.90;1.90;;;14.20;99.90;;;;;;5055980;28;20025;-66
2023/08/08 05:48:27;;;;;;;3.92;1.58;;;14.30;99.90;;;;;;5056851;28;20039;-67
2023/08/08 05:50:53;;;;;;;4.10;1.85;;;14.40;99.90;;;;;;5056327;28;20028;-67
2023/08/08 05:53:18;;;;;;;2.65;1.60;;;14.40;99.90;;;;;;5056093;28;20025;-67
2023/08/08 05:55:44;;;;;;;3.30;2.20;;;14.40;99.90;;;;;;5055983;28;20027;-66
2023/08/08 05:58:09;;;;;;;2.70;1.98;;;14.40;99.90;;;;;;5056031;28;20067;-67
2023/08/08 06:00:35;;;;;;;4.38;1.50;;;14.40;99.90;;;;;;5055940;28;20032;-67
2023/08/08 06:03:01;;;;;;;2.63;1.95;;;14.40;99.90;;;;;;5057011;28;20025;-67
2023/08/08 06:05:28;;;;;;;3.38;1.70;;;14.40;99.90;;;;;;5056422;28;20146;-67
2023/08/08 06:07:54;;;;;;;3.38;1.83;;;14.40;99.90;;;;;;5055782;28;20036;-67
2023/08/08 06:10:20;;;;;;;3.20;1.63;;;14.40;99.90;;;;;;5056746;28;20032;-66
2023/08/08 06:12:46;;;;;;;6.93;1.48;;;14.40;99.90;;;;;;5056837;28;20029;-67
2023/08/08 06:15:11;;;;;;;2.22;1.50;;;14.40;99.90;;;;;;5056623;28;20032;-66
2023/08/08 06:17:37;;;;;;;3.95;1.60;;;14.40;99.90;;;;;;5055869;28;20078;-66
2023/08/08 06:20:03;;;;;;;3.75;1.98;;;14.40;99.90;;;;;;5056863;28;20021;-66
2023/08/08 06:22:28;;;;;;;5.53;1.77;;;14.50;99.90;;;;;;5055663;28;20075;-66
2023/08/08 06:24:54;;;;;;;3.08;1.55;;;14.60;99.90;;;;;;5055663;28;20029;-66
2023/08/08 06:27:19;;;;;;;3.60;1.50;;;14.60;99.90;;;;;;5056514;28;20024;-66
2023/08/08 06:29:45;;;;;;;1.83;1.55;;;14.70;99.90;;;;;;5055683;28;20025;-66
2023/08/08 06:32:10;;;;;;;3.30;1.48;;;14.80;99.90;;;;;;5056740;28;20021;-66
2023/08/08 06:34:36;;;;;;;4.63;1.45;;;14.80;99.90;;;;;;5056548;28;20025;-66
2023/08/08 06:37:02;;;;;;;2.00;1.40;;;14.90;99.90;;;;;;5060664;28;20052;-67
2023/08/08 06:39:27;;;;;;;4.75;1.55;;;14.90;99.90;;;;;;5060316;28;20028;-67
2023/08/08 06:41:53;;;;;;;3.42;1.30;;;15.00;99.90;;;;;;5059471;28;20029;-67
2023/08/08 06:44:19;;;;;;;2.33;1.55;;;15.10;99.90;;;;;;5059569;28;20083;-66
2023/08/08 06:46:44;;;;;;;3.15;1.58;;;15.20;99.90;;;;;;5060256;28;20040;-66
2023/08/08 06:49:10;;;;;;;4.15;1.55;;;15.30;99.90;;;;;;5060155;28;20025;-67
2023/08/08 06:51:36;;;;;;;3.60;1.38;;;15.40;99.90;;;;;;5059423;28;20027;-66
2023/08/08 06:54:01;;;;;;;4.55;1.13;;;15.50;99.90;;;;;;5059933;28;20074;-66
2023/08/08 06:56:27;;;;;;;2.47;1.15;;;15.60;99.90;;;;;;5059106;28;20117;-67
2023/08/08 06:58:53;;;;;;;4.72;1.33;;;15.70;99.90;;;;;;5059397;28;20032;-66
2023/08/08 07:01:19;;;;;;;3.08;1.20;;;15.80;99.90;;;;;;5059185;28;20083;-66
2023/08/08 07:03:44;;;;;;;5.05;1.10;;;15.80;99.90;;;;;;5059327;28;20029;-67
2023/08/08 07:06:10;;;;;;;1.77;0.75;;;15.90;99.90;;;;;;5059551;28;20071;-66
2023/08/08 07:08:39;;;;;;;3.05;1.30;;;15.90;99.90;;;;;;5059308;28;20029;-66
2023/08/08 07:11:05;;;;;;;3.05;1.27;;;16.00;99.90;;;;;;5059944;28;20041;-67
2023/08/08 07:13:31;;;;;;;3.33;1.15;;;16.10;99.90;;;;;;5058800;28;20017;-67
2023/08/08 07:15:56;;;;;;;2.38;1.23;;;16.20;99.90;;;;;;5059603;28;20047;-67
2023/08/08 07:18:22;;;;;;;6.13;1.00;;;16.30;99.90;;;;;;5058723;28;20028;-67
2023/08/08 07:20:49;;;;;;;1.23;0.90;;;16.30;99.90;;;;;;5059579;28;20021;-66
2023/08/08 07:23:16;;;;;;;4.55;1.08;;;16.40;99.90;;;;;;5058563;28;20029;-67
2023/08/08 07:25:42;;;;;;;1.58;1.08;;;16.50;99.90;;;;;;5058425;28;20029;-66
2023/08/08 07:28:07;;;;;;;2.10;1.10;;;16.50;99.90;;;;;;5058681;28;20032;-66
2023/08/08 07:30:33;;;;;;;2.15;1.20;;;16.50;99.90;;;;;;5059468;28;20028;-67
2023/08/08 07:32:58;;;;;;;4.88;0.88;;;16.50;99.90;;;;;;5058650;28;20029;-67
2023/08/08 07:35:24;;;;;;;2.92;1.17;;;16.60;99.90;;;;;;5058352;28;20017;-66
2023/08/08 07:37:49;;;;;;;3.80;1.10;;;16.50;99.90;;;;;;5059349;28;20032;-67
2023/08/08 07:40:17;;;;;;;2.70;1.13;;;16.50;99.90;;;;;;5058800;28;20029;-66
2023/08/08 07:42:43;;;;;;;5.53;1.08;;;16.60;99.90;;;;;;5059530;28;20103;-66
2023/08/08 07:45:09;;;;;;;4.05;1.17;;;16.60;99.90;;;;;;5059116;28;20099;-67
2023/08/08 07:47:34;;;;;;;2.70;1.00;;;16.60;99.90;;;;;;5058789;28;20240;-66
2023/08/08 07:50:00;;;;;;;1.83;0.98;;;16.70;99.90;;;;;;5058225;28;20071;-66
2023/08/08 07:52:26;;;;;;;5.10;1.38;;;16.60;99.90;;;;;;5058807;28;20094;-66
2023/08/08 07:54:51;;;;;;;1.48;1.20;;;16.70;99.90;;;;;;5059428;28;20116;-66
2023/08/08 07:57:17;;;;;;;1.65;1.10;;;16.70;99.90;;;;;;5058238;28;20013;-66
2023/08/08 07:59:42;;;;;;;1.48;0.80;;;16.80;99.90;;;;;;5058777;28;20033;-66
2023/08/08 08:02:08;;;;;;;2.63;1.05;;;16.90;99.90;;;;;;5059035;28;20033;-67
2023/08/08 08:04:34;;;;;;;2.80;1.20;;;17.10;99.90;;;;;;5057718;28;20056;-67
2023/08/08 08:07:00;;;;;;;2.47;0.93;;;17.20;99.90;;;;;;5059065;28;20033;-66
2023/08/08 08:09:25;;;;;;;2.78;1.10;;;17.20;99.90;;;;;;5058637;28;20043;-66
2023/08/08 08:11:51;;;;;;;2.55;1.20;;;17.30;99.90;;;;;;5058041;28;20113;-66
2023/08/08 08:14:16;;;;;;;2.20;1.00;;;17.20;99.90;;;;;;5058490;28;20039;-66
2023/08/08 08:16:42;;;;;;;1.52;0.95;;;17.20;99.90;;;;;;5057652;28;20062;-66
2023/08/08 08:19:07;;;;;;;2.42;1.52;;;17.10;99.90;;;;;;5057556;28;20025;-66
2023/08/08 08:21:33;;;;;;;3.80;1.45;;;17.20;99.90;;;;;;5057521;28;20025;-66
2023/08/08 08:23:58;;;;;;;3.92;1.63;;;17.20;99.90;;;;;;5057498;28;20025;-66
2023/08/08 08:26:24;;;;;;;4.85;1.30;;;17.40;99.90;;;;;;5057421;28;20036;-66
2023/08/08 08:28:49;;;;;;;2.33;1.25;;;17.40;99.90;;;;;;5057416;28;20029;-66
2023/08/08 08:31:15;;;;;;;5.97;1.70;;;17.50;99.90;;;;;;5057354;28;20167;-66
2023/08/08 08:33:40;;;;;;;2.45;1.20;;;17.50;99.90;;;;;;5058118;28;20070;-66
2023/08/08 08:36:06;;;;;;;3.78;1.60;;;17.50;99.90;;;;;;5057623;28;20103;-66
2023/08/08 08:38:32;;;;;;;5.20;1.27;;;17.60;99.90;;;;;;5058260;28;20021;-66
2023/08/08 08:40:58;;;;;;;8.00;1.55;;;17.80;99.90;;;;;;5057994;28;20025;-66
2023/08/08 08:43:24;;;;;;;3.80;1.75;;;17.90;99.90;;;;;;5057079;28;20116;-66
2023/08/08 08:45:52;;;;;;;6.65;1.48;;;18.00;99.90;;;;;;5057831;28;20025;-66
2023/08/08 08:48:19;;;;;;;3.60;1.00;;;18.10;99.90;;;;;;5057910;28;20104;-66
2023/08/08 08:50:47;;;;;;;7.32;1.40;;;18.20;99.90;;;;;;5056959;28;20112;-66
2023/08/08 08:53:14;;;;;;;3.65;1.73;;;18.20;99.90;;;;;;5056965;28;20029;-66
2023/08/08 08:55:41;;;;;;;2.90;1.60;;;18.30;99.90;;;;;;5057734;28;20018;-66
2023/08/08 08:58:06;;;;;;;1.92;1.15;;;18.30;99.90;;;;;;5057089;28;20061;-66
2023/08/08 09:00:33;;;;;;;4.30;1.20;;;18.40;99.90;;;;;;5056758;28;20032;-66
2023/08/08 09:02:59;;;;;;;4.82;1.50;;;18.50;99.90;;;;;;5057932;28;20021;-66
2023/08/08 09:05:25;;;;;;;4.03;1.30;;;18.50;99.90;;;;;;5056650;28;20036;-66
2023/08/08 09:07:51;;;;;;;2.15;1.10;;;18.50;99.90;;;;;;5057644;28;20021;-66
2023/08/08 09:10:18;;;;;;;5.75;1.70;;;18.50;99.90;;;;;;5057529;28;20028;-66
2023/08/08 09:12:45;;;;;;;6.15;1.30;;;18.50;99.90;;;;;;5057338;28;20028;-66
2023/08/08 09:15:11;;;;;;;4.53;1.33;;;18.50;99.90;;;;;;5056763;28;20048;-66
2023/08/08 09:17:43;;;;;;;3.58;1.40;;;18.60;99.90;;;;;;5056476;28;20027;-66
2023/08/08 09:20:10;;;;;;;3.72;1.50;;;18.70;99.90;;;;;;5056657;28;20047;-66
2023/08/08 09:22:37;;;;;;;2.58;1.40;;;18.60;99.90;;;;;;5056687;28;20147;-66
2023/08/08 09:25:03;;;;;;;2.28;1.02;;;18.60;99.90;;;;;;5057579;28;20021;-66
2023/08/08 09:27:29;;;;;;;6.63;1.33;;;18.80;99.90;;;;;;5056363;28;20021;-66
2023/08/08 09:29:55;;;;;;;4.68;2.00;;;18.70;99.90;;;;;;5057147;28;20024;-66
2023/08/08 09:32:20;;;;;;;5.20;1.48;;;18.70;99.90;;;;;;5057040;28;20063;-66
2023/08/08 09:34:46;;;;;;;3.60;1.30;;;18.80;99.90;;;;;;5056401;28;20025;-66
2023/08/08 09:37:12;;;;;;;8.82;2.08;;;18.90;99.90;;;;;;5057493;28;20028;-66
2023/08/08 09:39:37;;;;;;;2.65;1.13;;;19.00;99.90;;;;;;5057112;28;20021;-66
2023/08/08 09:42:06;;;;;;;2.30;1.00;;;19.20;99.90;;;;;;5056221;28;20057;-66
2023/08/08 09:44:34;;;;;;;3.60;1.40;;;19.20;99.90;;;;;;5056163;28;20025;-66
2023/08/08 09:47:01;;;;;;;4.03;1.60;;;19.10;99.90;;;;;;5056988;28;20075;-66
2023/08/08 09:49:28;;;;;;;4.10;1.92;;;19.20;99.90;;;;;;5057102;28;20131;-66
2023/08/08 09:51:54;;;;;;;3.40;2.00;;;19.10;99.90;;;;;;5057029;28;20025;-66
2023/08/08 09:54:20;;;;;;;4.15;1.73;;;19.10;99.90;;;;;;5056981;28;20052;-66
2023/08/08 09:56:48;;;;;;;2.00;1.13;;;19.10;99.90;;;;;;5057023;28;20028;-66
2023/08/08 09:59:15;;;;;;;3.63;1.83;;;19.10;99.90;;;;;;5056659;28;20027;-66
2023/08/08 10:01:41;;;;;;;3.97;1.30;;;19.20;99.90;;;;;;5056091;28;20116;-66
2023/08/08 10:04:08;;;;;;;3.38;1.45;;;19.20;99.90;;;;;;5056546;28;20029;-66
2023/08/08 10:06:34;;;;;;;2.15;1.10;;;19.40;99.90;;;;;;5055861;28;20048;-66
2023/08/08 10:09:01;;;;;;;4.30;1.88;;;19.50;99.90;;;;;;5057711;28;20029;-66
2023/08/08 10:11:28;;;;;;;4.93;1.60;;;19.50;99.90;;;;;;5060840;28;20032;-66
2023/08/08 10:13:54;;;;;;;7.78;1.48;;;19.50;99.90;;;;;;5060778;28;20108;-66
2023/08/08 10:16:22;;;;;;;2.47;1.52;;;19.60;99.90;;;;;;5060719;28;20021;-66
2023/08/08 10:19:02;;;;;;;2.17;1.27;;;19.50;99.90;;;;;;5059822;28;20154;-66
2023/08/08 10:21:33;;;;;;;2.33;1.20;;;19.60;99.90;;;;;;5060360;28;20028;-66
2023/08/08 10:24:07;;;;;;;2.47;1.10;;;19.70;99.90;;;;;;5060923;28;20070;-66
2023/08/08 10:26:32;;;;;;;2.33;1.48;;;19.70;99.90;;;;;;5059660;28;20032;-66
2023/08/08 10:29:00;;;;;;;2.75;1.40;;;19.80;99.90;;;;;;5060795;28;20029;-66
2023/08/08 10:31:26;;;;;;;3.75;1.00;;;19.90;99.90;;;;;;5060629;28;20068;-66
2023/08/08 10:34:04;;;;;;;3.83;1.27;;;19.90;99.90;;;;;;5059884;28;20036;-66
2023/08/08 10:36:52;;;;;;;4.00;1.23;;;20.00;99.90;;;;;;5060368;28;20017;-66
2023/08/08 10:39:20;;;;;;;2.97;1.30;;;20.20;99.90;;;;;;5060478;28;20134;-66
2023/08/08 10:41:47;;;;;;;2.88;1.25;;;20.00;99.90;;;;;;5060297;28;20029;-66
2023/08/08 10:44:14;;;;;;;2.10;1.40;;;20.00;99.90;;;;;;5060195;28;20021;-66
2023/08/08 10:46:41;;;;;;;4.82;1.40;;;20.10;99.90;;;;;;5059272;28;20024;-66
2023/08/08 10:49:07;;;;;;;1.80;1.10;;;20.30;99.90;;;;;;5060206;28;20105;-66
2023/08/08 10:51:38;;;;;;;2.30;1.38;;;20.50;99.90;;;;;;5059535;28;20044;-66
2023/08/08 10:54:06;;;;;;;3.58;1.40;;;20.60;99.90;;;;;;5058993;28;20032;-66
2023/08/08 10:56:31;;;;;;;3.25;1.58;;;20.60;99.90;;;;;;5060088;28;20021;-66
2023/08/08 10:58:57;;;;;;;2.60;1.45;;;20.50;99.90;;;;;;5060166;28;20025;-66
2023/08/08 11:01:26;;;;;;;3.80;1.63;;;20.50;99.90;;;;;;5060397;28;20029;-66
2023/08/08 11:03:52;;;;;;;5.85;1.10;;;20.60;99.90;;;;;;5058950;28;20029;-66
2023/08/08 11:06:19;;;;;;;2.67;1.30;;;20.50;99.90;;;;;;5058897;28;20033;-66
2023/08/08 11:08:44;;;;;;;2.85;1.20;;;20.40;99.90;;;;;;5059081;28;20031;-66
2023/08/08 11:11:10;;;;;;;4.93;1.58;;;20.30;99.90;;;;;;5059864;28;20084;-66
2023/08/08 11:13:35;;;;;;;3.40;1.48;;;20.10;99.90;;;;;;5058774;28;20025;-66
2023/08/08 11:16:01;;;;;;;3.67;1.23;;;20.00;99.90;;;;;;5059657;28;20029;-66
2023/08/08 11:18:27;;;;;;;4.20;1.58;;;20.00;99.90;;;;;;5059587;28;20025;-66
2023/08/08 11:20:53;;;;;;;1.75;1.17;;;20.10;99.90;;;;;;5058035;28;20043;-66
2023/08/08 11:23:20;;;;;;;5.18;1.60;;;20.20;99.90;;;;;;5058749;28;20028;-66
2023/08/08 11:25:46;;;;;;;3.65;1.45;;;20.50;99.90;;;;;;5059385;28;20025;-66
2023/08/08 11:28:13;;;;;;;1.73;1.10;;;20.70;99.90;;;;;;5059061;28;20032;-66
2023/08/08 11:30:42;;;;;;;3.47;1.23;;;20.70;99.90;;;;;;5058402;28;20028;-66
2023/08/08 11:33:07;;;;;;;4.38;1.40;;;20.80;99.90;;;;;;5058867;28;20021;-66
2023/08/08 11:35:34;;;;;;;3.28;1.48;;;20.90;99.90;;;;;;5059322;28;20027;-66
2023/08/08 11:38:00;;;;;;;1.98;1.20;;;21.10;99.90;;;;;;5059441;28;20049;-66
2023/08/08 11:40:28;;;;;;;5.65;1.98;;;21.20;99.90;;;;;;5059207;28;20029;-66
2023/08/08 11:42:56;;;;;;;3.65;1.50;;;21.40;99.90;;;;;;5058491;28;20059;-66
2023/08/08 11:45:22;;;;;;;4.13;1.50;;;21.70;99.90;;;;;;5059102;28;20029;-66
2023/08/08 11:47:49;;;;;;;1.77;0.93;;;21.60;99.90;;;;;;5058428;28;20025;-66
2023/08/08 11:50:15;;;;;;;3.35;1.40;;;21.50;99.90;;;;;;5058326;28;20025;-66
2023/08/08 11:52:42;;;;;;;2.67;1.10;;;21.30;99.90;;;;;;5058731;28;20028;-66
2023/08/08 11:55:12;;;;;;;1.50;1.30;;;21.10;99.90;;;;;;5058284;28;20025;-66
2023/08/08 11:57:38;;;;;;;2.00;0.73;;;21.10;99.90;;;;;;5058567;28;20074;-66
2023/08/08 12:00:07;;;;;;;6.20;1.73;;;21.00;99.90;;;;;;5058285;28;20025;-66
2023/08/08 12:02:33;;;;;;;2.80;1.15;;;20.80;99.90;;;;;;5058903;28;20044;-66
2023/08/08 12:05:05;;;;;;;2.97;1.42;;;20.70;99.90;;;;;;5058377;28;20091;-66
2023/08/08 12:07:33;;;;;;;5.13;1.40;;;20.60;99.90;;;;;;5057817;28;20025;-66
2023/08/08 12:09:58;;;;;;;2.60;1.90;;;20.40;99.90;;;;;;5057773;28;20021;-66
2023/08/08 12:12:26;;;;;;;3.35;1.40;;;20.30;99.90;;;;;;5058031;28;20021;-66
2023/08/08 12:14:53;;;;;;;1.98;1.30;;;20.20;99.90;;;;;;5057975;28;20029;-66
2023/08/08 12:17:21;;;;;;;3.45;1.15;;;20.10;99.90;;;;;;5057591;28;20021;-66
2023/08/08 12:19:47;;;;;;;4.18;1.58;;;20.00;99.90;;;;;;5058498;28;20017;-66
2023/08/08 12:22:13;;;;;;;3.50;1.15;;;20.00;99.90;;;;;;5057582;28;20043;-66
2023/08/08 12:24:39;;;;;;;3.45;1.65;;;20.00;99.90;;;;;;5057376;28;20025;-66
2023/08/08 12:27:04;;;;;;;4.40;2.13;;;20.10;99.90;;;;;;5058523;28;20063;-66
2023/08/08 12:29:30;;;;;;;6.63;2.03;;;20.20;99.90;;;;;;5057756;28;20028;-66
2023/08/08 12:31:56;;;;;;;3.65;1.65;;;20.40;99.90;;;;;;5057134;28;20037;-66
2023/08/08 12:34:22;;;;;;;8.90;3.55;;;20.60;99.90;;;;;;5057467;28;20075;-66
2023/08/08 12:36:47;;;;;;;6.40;2.92;;;20.90;99.90;;;;;;5057730;28;20029;-66
2023/08/08 12:39:13;;;;;;;3.92;1.48;;;21.00;99.90;;;;;;5058300;28;20087;-66
2023/08/08 12:41:39;;;;;;;5.03;1.60;;;21.10;99.90;;;;;;5058151;28;20075;-66
2023/08/08 12:44:05;;;;;;;3.70;1.13;;;21.10;99.90;;;;;;5057328;28;20024;-66